Time;durP1;ratioP1;P1;durP2;ratioP2;P2;SDS_P1;SDS_P2;PMS_P1;PMS_P2;Temp;Humidity;BMP_temperature;BMP_pressure;BME280_temperature;BME280_humidity;BME280_pressure;Samples;Min_cycle;Max_cycle;Signal;HPM_P1;HPM_P2
2023/09/06 00:01:07;;;;;;;;;27.50;22.00;;;;;27.33;49.33;101256.88;5058789;28;45422;-43
2023/09/06 00:03:35;;;;;;;;;25.25;20.50;;;;;27.31;49.49;101259.03;5057288;28;46210;-44
2023/09/06 00:06:00;;;;;;;;;27.00;25.40;;;;;27.28;49.74;101261.41;5058466;28;45178;-46
2023/09/06 00:08:26;;;;;;;;;22.50;19.75;;;;;27.24;49.61;101258.34;5058567;28;45356;-46
2023/09/06 00:10:52;;;;;;;;;19.00;17.50;;;;;27.23;49.77;101256.69;5058505;28;45504;-49
2023/09/06 00:13:18;;;;;;;;;17.50;16.75;;;;;27.18;49.03;101259.34;5058306;28;46417;-50
2023/09/06 00:15:43;;;;;;;;;21.75;19.75;;;;;27.08;48.93;101249.00;5058456;28;45485;-42
2023/09/06 00:18:09;;;;;;;;;23.00;21.25;;;;;27.08;49.61;101257.19;5058436;28;45433;-42
2023/09/06 00:20:36;;;;;;;;;27.00;18.75;;;;;27.04;49.58;101255.19;5058523;28;45706;-44
2023/09/06 00:23:13;;;;;;;;;22.80;18.60;;;;;27.02;49.90;101257.34;5058331;28;46471;-46
2023/09/06 00:25:38;;;;;;;;;23.80;19.80;;;;;26.98;49.69;101253.44;5058008;28;45417;-43
2023/09/06 00:28:05;;;;;;;;;20.00;17.75;;;;;26.96;50.11;101250.94;5058369;28;45812;-43
2023/09/06 00:30:31;;;;;;;;;17.80;16.40;;;;;26.93;49.56;101256.09;5058396;28;45291;-44
2023/09/06 00:32:58;;;;;;;;;19.50;19.50;;;;;26.88;49.46;101256.78;5057976;28;45391;-42
2023/09/06 00:35:24;;;;;;;;;20.60;19.40;;;;;26.81;50.20;101251.50;5057902;28;45422;-42
2023/09/06 00:37:54;;;;;;;;;18.00;12.80;;;;;26.76;49.72;101256.84;5057518;28;45406;-41
2023/09/06 00:40:21;;;;;;;;;20.25;20.25;;;;;26.73;49.74;101251.03;5058520;28;45265;-41
2023/09/06 00:42:48;;;;;;;;;24.00;18.60;;;;;26.68;49.37;101254.50;5058008;28;45410;-42
2023/09/06 00:45:15;;;;;;;;;15.80;15.40;;;;;26.60;49.73;101252.97;5057976;28;45405;-43
2023/09/06 00:47:42;;;;;;;;;17.80;16.00;;;;;26.61;49.37;101248.34;5057972;28;45430;-42
2023/09/06 00:50:08;;;;;;;;;20.20;16.00;;;;;26.52;50.00;101241.59;5058273;28;45267;-42
2023/09/06 00:52:33;;;;;;;;;19.00;17.60;;;;;26.53;50.15;101246.81;5057801;28;45443;-44
2023/09/06 00:55:01;;;;;;;;;17.25;16.00;;;;;26.55;49.68;101257.50;5057697;28;45410;-41
2023/09/06 00:57:29;;;;;;;;;17.80;14.20;;;;;26.53;50.06;101259.63;5057819;28;45461;-44
2023/09/06 00:59:59;;;;;;;;;17.60;15.40;;;;;26.49;49.37;101256.53;5058107;28;45451;-40
2023/09/06 01:02:27;;;;;;;;;16.60;14.80;;;;;26.43;49.10;101249.28;5057872;28;46151;-41
2023/09/06 01:04:53;;;;;;;;;16.80;14.60;;;;;26.42;49.41;101250.38;5056327;28;45513;-42
2023/09/06 01:07:22;;;;;;;;;16.00;15.40;;;;;26.39;49.43;101253.56;5057649;28;45497;-40
2023/09/06 01:09:48;;;;;;;;;21.00;17.40;;;;;26.30;49.64;101246.81;5057973;28;45435;-42
2023/09/06 01:12:14;;;;;;;;;20.50;16.75;;;;;26.23;50.58;101252.38;5057268;28;45533;-42
2023/09/06 01:14:40;;;;;;;;;14.75;13.75;;;;;26.21;50.44;101246.38;5057511;28;45311;-47
2023/09/06 01:17:07;;;;;;;;;15.40;14.20;;;;;26.24;50.60;101251.31;5056950;28;45453;-42
2023/09/06 01:19:36;;;;;;;;;20.00;14.80;;;;;26.19;50.87;101245.75;5057633;28;46119;-42
2023/09/06 01:22:10;;;;;;;;;15.80;14.00;;;;;26.21;50.95;101242.78;5057284;28;46817;-44
2023/09/06 01:24:36;;;;;;;;;14.60;13.00;;;;;26.20;51.24;101235.66;5057270;28;45398;-45
2023/09/06 01:27:04;;;;;;;;;13.60;12.80;;;;;26.23;51.02;101248.84;5057216;28;45390;-41
2023/09/06 01:29:31;;;;;;;;;18.00;15.40;;;;;26.19;51.03;101242.19;5057399;28;45309;-46
2023/09/06 01:31:56;;;;;;;;;15.00;14.00;;;;;26.20;51.18;101238.41;5057528;28;46249;-45
2023/09/06 01:34:21;;;;;;;;;14.25;12.25;;;;;26.13;51.16;101241.28;5057219;28;45351;-44
2023/09/06 01:36:47;;;;;;;;;13.75;13.75;;;;;26.12;51.69;101245.91;5057154;28;45420;-43
2023/09/06 01:39:12;;;;;;;;;16.50;14.75;;;;;26.16;51.54;101251.66;5057417;28;45444;-41
2023/09/06 01:41:38;;;;;;;;;18.00;16.25;;;;;26.15;51.37;101251.91;5056576;28;46745;-46
2023/09/06 01:44:03;;;;;;;;;22.50;17.75;;;;;26.13;51.94;101253.00;5056602;28;45436;-43
2023/09/06 01:46:29;;;;;;;;;15.00;14.00;;;;;26.11;51.74;101257.84;5056996;28;45402;-40
2023/09/06 01:48:54;;;;;;;;;14.00;14.00;;;;;26.07;52.06;101248.47;5057243;28;45414;-41
2023/09/06 01:51:19;;;;;;;;;16.00;13.75;;;;;26.08;52.06;101257.47;5057004;28;46188;-43
2023/09/06 01:53:44;;;;;;;;;15.00;13.50;;;;;25.97;51.98;101240.06;5056892;28;45471;-42
2023/09/06 01:56:10;;;;;;;;;14.00;13.00;;;;;26.05;51.83;101256.06;5056921;28;45486;-46
2023/09/06 01:58:37;;;;;;;;;17.50;17.00;;;;;26.02;51.67;101256.53;5056898;28;45460;-44
2023/09/06 02:01:07;;;;;;;;;15.60;11.00;;;;;25.92;52.23;101239.97;5056979;28;46151;-43
2023/09/06 02:03:33;;;;;;;;;16.80;14.20;;;;;25.94;52.29;101235.09;5056669;28;45430;-43
2023/09/06 02:06:01;;;;;;;;;15.80;14.00;;;;;25.88;51.91;101244.22;5056582;28;45380;-45
2023/09/06 02:08:26;;;;;;;;;16.40;14.20;;;;;25.87;52.06;101254.31;5056915;28;45510;-44
2023/09/06 02:10:51;;;;;;;;;16.75;15.00;;;;;25.85;51.83;101266.50;5056584;28;46138;-46
2023/09/06 02:13:17;;;;;;;;;17.00;14.00;;;;;25.79;52.01;101259.28;5056540;28;45424;-43
2023/09/06 02:15:42;;;;;;;;;14.00;12.50;;;;;25.73;52.50;101262.88;5056713;28;45387;-46
2023/09/06 02:18:07;;;;;;;;;12.25;12.25;;;;;25.65;52.12;101253.16;5056389;28;45307;-45
2023/09/06 02:20:33;;;;;;;;;15.25;13.25;;;;;25.64;52.65;101267.84;5056239;28;46318;-45
2023/09/06 02:22:58;;;;;;;;;10.25;7.75;;;;;25.63;53.19;101263.47;5056411;28;45178;-46
2023/09/06 02:25:28;;;;;;;;;11.00;11.00;;;;;25.56;53.11;101254.56;5056669;28;45159;-44
2023/09/06 02:27:54;;;;;;;;;14.20;13.00;;;;;25.61;53.35;101268.31;5056496;28;45438;-45
2023/09/06 02:30:20;;;;;;;;;14.75;13.00;;;;;25.60;53.25;101261.19;5056526;28;46212;-42
2023/09/06 02:32:47;;;;;;;;;13.00;11.50;;;;;25.57;53.42;101262.50;5056218;28;45433;-47
2023/09/06 02:35:13;;;;;;;;;16.00;13.20;;;;;25.56;53.62;101265.47;5056234;28;45308;-46
2023/09/06 02:37:38;;;;;;;;;15.50;11.50;;;;;25.56;53.22;101260.00;5056404;28;45418;-43
2023/09/06 02:40:11;;;;;;;;;16.50;13.00;;;;;25.46;53.79;101241.53;5056083;28;47076;-47
2023/09/06 02:42:38;;;;;;;;;17.20;14.80;;;;;25.52;53.94;101254.19;5056267;28;45323;-48
2023/09/06 02:45:06;;;;;;;;;16.00;12.60;;;;;25.48;53.92;101249.44;5056188;28;45427;-41
2023/09/06 02:47:34;;;;;;;;;15.00;11.20;;;;;25.47;54.11;101248.63;5056458;28;45459;-47
2023/09/06 02:49:59;;;;;;;;;15.40;13.60;;;;;25.51;53.91;101257.16;5056049;28;46687;-45
2023/09/06 02:52:30;;;;;;;;;17.50;14.75;;;;;25.50;53.91;101259.06;5056219;28;45735;-43
2023/09/06 02:54:57;;;;;;;;;15.00;15.00;;;;;25.46;54.17;101251.59;5056325;28;45320;-42
2023/09/06 02:57:24;;;;;;;;;13.40;12.20;;;;;25.44;54.40;101259.97;5056071;28;45549;-43
2023/09/06 02:59:51;;;;;;;;;17.25;14.50;;;;;25.39;53.87;101254.41;5054549;28;46504;-45
2023/09/06 03:02:20;;;;;;;;;14.60;13.00;;;;;25.38;54.53;101255.47;5056113;28;45391;-43
2023/09/06 03:04:45;;;;;;;;;17.40;14.60;;;;;25.38;54.11;101261.75;5055847;28;45402;-44
2023/09/06 03:07:10;;;;;;;;;22.00;20.00;;;;;25.31;54.42;101260.19;5056217;28;45430;-42
2023/09/06 03:09:38;;;;;;;;;16.00;14.00;;;;;25.31;54.31;101260.19;5055582;28;48314;-47
2023/09/06 03:12:07;;;;;;;;;17.00;15.00;;;;;25.21;54.57;101255.28;5055489;28;45387;-43
2023/09/06 03:14:33;;;;;;;;;15.20;14.00;;;;;25.25;55.16;101255.66;5056015;28;45480;-47
2023/09/06 03:17:08;;;;;;;;;103.25;87.25;;;;;25.27;55.39;101258.97;5055971;28;45445;-42
2023/09/06 03:19:34;;;;;;;;;53.00;41.67;;;;;25.30;55.06;101263.97;5055575;28;47230;-43
2023/09/06 03:22:06;;;;;;;;;16.25;16.25;;;;;25.29;54.89;101254.16;5054389;28;45322;-43
2023/09/06 03:24:31;;;;;;;;;16.80;15.80;;;;;25.32;54.96;101265.38;5055750;28;45390;-43
2023/09/06 03:26:58;;;;;;;;;15.00;12.25;;;;;25.32;54.91;101257.22;5055893;28;45448;-43
2023/09/06 03:29:24;;;;;;;;;14.20;13.00;;;;;25.30;55.40;101258.53;5055337;28;47328;-41
2023/09/06 03:31:53;;;;;;;;;14.40;12.80;;;;;25.32;55.23;101250.94;5057409;28;45204;-46
2023/09/06 03:34:18;;;;;;;;;12.80;12.20;;;;;25.31;55.59;101246.56;5058787;28;45460;-44
2023/09/06 03:36:46;;;;;;;;;13.00;12.75;;;;;25.29;55.54;101252.25;5058996;28;45490;-46
2023/09/06 03:39:13;;;;;;;;;15.00;13.00;;;;;25.27;55.87;101253.53;5059093;28;45377;-46
2023/09/06 03:41:40;;;;;;;;;15.20;15.20;;;;;25.27;55.78;101258.97;5058802;28;45409;-45
2023/09/06 03:44:06;;;;;;;;;17.60;14.80;;;;;25.25;55.44;101255.66;5058847;28;45266;-45
2023/09/06 03:46:34;;;;;;;;;16.75;14.00;;;;;25.22;56.07;101251.50;5058814;28;45354;-43
2023/09/06 03:49:00;;;;;;;;;14.60;12.40;;;;;25.25;55.75;101255.66;5058151;28;46533;-44
2023/09/06 03:51:25;;;;;;;;;16.00;12.75;;;;;25.21;56.03;101249.84;5058390;28;45394;-43
2023/09/06 03:53:50;;;;;;;;;14.50;11.00;;;;;25.27;55.72;101264.41;5059101;28;45383;-44
2023/09/06 03:56:16;;;;;;;;;12.75;12.75;;;;;25.27;55.45;101264.41;5058826;28;45351;-44
2023/09/06 03:58:41;;;;;;;;;17.00;14.25;;;;;25.27;55.72;101259.81;5058553;28;45462;-45
2023/09/06 04:01:10;;;;;;;;;15.50;12.00;;;;;25.23;55.87;101264.06;5058691;28;45439;-47
2023/09/06 04:03:38;;;;;;;;;15.60;13.60;;;;;25.21;56.09;101260.75;5058619;28;45286;-47
2023/09/06 04:06:04;;;;;;;;;17.25;13.75;;;;;25.21;55.83;101268.91;5059008;28;45431;-43
2023/09/06 04:08:30;;;;;;;;;11.75;10.75;;;;;25.18;55.92;101257.66;5058390;28;45331;-45
2023/09/06 04:10:56;;;;;;;;;15.60;15.60;;;;;25.18;55.54;101273.97;5058477;28;45398;-44
2023/09/06 04:13:21;;;;;;;;;17.50;14.00;;;;;25.12;56.01;101264.84;5057348;28;45445;-49
2023/09/06 04:15:47;;;;;;;;;16.25;15.00;;;;;25.08;56.29;101261.75;5058795;28;45327;-43
2023/09/06 04:18:12;;;;;;;;;16.00;15.25;;;;;25.04;55.94;101271.41;5058647;28;46356;-45
2023/09/06 04:20:40;;;;;;;;;9.50;9.50;;;;;25.04;55.82;101276.03;5058252;28;45355;-45
2023/09/06 04:23:07;;;;;;;;;15.80;15.40;;;;;24.97;56.32;101262.50;5058445;28;45429;-44
2023/09/06 04:25:41;;;;;;;;;14.75;13.25;;;;;24.89;56.38;101258.19;5058550;28;45640;-46
2023/09/06 04:28:07;;;;;;;;;13.40;13.00;;;;;24.96;55.57;101265.47;5057921;28;45416;-43
2023/09/06 04:30:36;;;;;;;;;15.00;14.00;;;;;24.87;56.79;101254.88;5057991;28;45441;-40
2023/09/06 04:33:03;;;;;;;;;14.60;12.60;;;;;24.91;56.37;101265.31;5058539;28;46044;-43
2023/09/06 04:35:48;;;;;;;;;18.25;14.00;;;;;24.88;55.92;101258.44;5058244;28;45408;-45
2023/09/06 04:38:16;;;;;;;;;11.60;9.60;;;;;24.84;56.13;101260.78;5056621;28;48413;-45
2023/09/06 04:40:45;;;;;;;;;13.80;13.00;;;;;24.84;56.48;101260.78;5056555;28;45227;-42
2023/09/06 04:43:12;;;;;;;;;16.60;13.00;;;;;24.82;56.37;101260.19;5056595;28;45400;-46
2023/09/06 04:45:37;;;;;;;;;12.00;12.00;;;;;24.85;56.50;101265.16;5058297;28;45387;-44
2023/09/06 04:48:05;;;;;;;;;17.00;14.75;;;;;24.81;56.20;101254.97;5057756;28;46942;-46
2023/09/06 04:50:30;;;;;;;;;15.80;14.60;;;;;24.77;56.63;101265.47;5057830;28;45412;-45
2023/09/06 04:52:56;;;;;;;;;15.50;15.25;;;;;24.75;57.17;101269.47;5057809;28;45343;-44
2023/09/06 04:55:22;;;;;;;;;15.25;13.50;;;;;24.71;56.64;101279.16;5057994;28;45301;-41
2023/09/06 04:57:47;;;;;;;;;14.00;13.75;;;;;24.66;56.96;101277.13;5057442;28;47237;-40
2023/09/06 05:00:30;;;;;;;;;13.75;13.50;;;;;24.63;56.96;101281.13;5057822;28;45332;-40
2023/09/06 05:02:57;;;;;;;;;14.40;13.40;;;;;24.61;56.90;101277.81;5057458;28;45411;-44
2023/09/06 05:05:23;;;;;;;;;16.25;15.25;;;;;24.55;57.23;101278.69;5057932;28;45517;-41
2023/09/06 05:07:49;;;;;;;;;17.75;15.50;;;;;24.51;57.76;101266.59;5057568;28;46210;-42
2023/09/06 05:10:14;;;;;;;;;17.50;14.25;;;;;24.54;58.00;101281.66;5057505;28;45511;-44
2023/09/06 05:12:40;;;;;;;;;18.50;13.50;;;;;24.52;57.45;101275.59;5057638;28;45822;-47
2023/09/06 05:15:07;;;;;;;;;13.75;12.50;;;;;24.53;57.53;101280.81;5057490;28;45344;-42
2023/09/06 05:17:33;;;;;;;;;13.50;13.50;;;;;24.49;58.01;101270.63;5057105;28;46650;-43
2023/09/06 05:20:28;;;;;;;;;14.75;13.25;;;;;24.53;57.87;101269.13;5057440;28;45841;-44
2023/09/06 05:22:55;;;;;;;;;16.00;13.60;;;;;24.52;57.93;101276.41;5057378;28;45463;-43
2023/09/06 05:25:21;;;;;;;;;16.25;14.50;;;;;24.52;58.36;101278.31;5057908;28;45327;-44
2023/09/06 05:27:47;;;;;;;;;17.00;15.25;;;;;24.49;57.86;101265.19;5057164;28;46389;-45
2023/09/06 05:30:12;;;;;;;;;17.50;15.75;;;;;24.58;57.92;101280.16;5057214;28;45327;-46
2023/09/06 05:32:38;;;;;;;;;14.00;13.25;;;;;24.58;58.00;101280.16;5055738;28;45305;-46
2023/09/06 05:35:04;;;;;;;;;15.25;15.25;;;;;24.59;57.87;101276.34;5057516;28;45379;-45
2023/09/06 05:37:29;;;;;;;;;15.25;14.00;;;;;24.59;57.81;101276.34;5057150;28;45429;-46
2023/09/06 05:39:55;;;;;;;;;19.00;14.50;;;;;24.60;57.54;101280.72;5057041;28;45322;-47
2023/09/06 05:42:20;;;;;;;;;13.50;13.50;;;;;24.62;57.47;101286.78;5057564;28;45859;-48
2023/09/06 05:44:46;;;;;;;;;16.50;15.25;;;;;24.62;57.42;101278.63;5055707;28;45690;-44
2023/09/06 05:47:11;;;;;;;;;15.75;14.75;;;;;24.66;57.28;101288.00;5056960;28;46273;-47
2023/09/06 05:49:36;;;;;;;;;13.50;13.50;;;;;24.64;56.99;101279.22;5057044;28;45316;-41
2023/09/06 05:52:02;;;;;;;;;13.75;12.00;;;;;24.74;57.30;101293.16;5056653;28;45307;-43
2023/09/06 05:54:27;;;;;;;;;17.50;13.75;;;;;24.78;56.95;101291.63;5056362;28;45386;-45
2023/09/06 05:56:53;;;;;;;;;38.25;29.50;;;;;24.82;57.12;101298.28;5056813;28;45748;-44
2023/09/06 05:59:19;;;;;;;;;21.25;19.00;;;;;24.86;56.61;101295.91;5057029;28;45792;-43
2023/09/06 06:01:44;;;;;;;;;12.25;12.25;;;;;24.88;56.45;101291.09;5057001;28;45362;-45
2023/09/06 06:04:11;;;;;;;;;16.50;13.75;;;;;24.96;56.48;101296.22;5057171;28;45331;-45
2023/09/06 06:06:36;;;;;;;;;15.00;12.60;;;;;25.00;56.13;101288.44;5056835;28;46215;-47
2023/09/06 06:09:04;;;;;;;;;11.50;9.00;;;;;25.04;55.62;101295.91;5056715;28;45301;-47
2023/09/06 06:11:29;;;;;;;;;16.20;14.20;;;;;25.08;55.13;101291.69;5057047;28;45561;-46
2023/09/06 06:13:55;;;;;;;;;13.25;13.25;;;;;25.16;55.32;101303.31;5057031;28;45384;-44
2023/09/06 06:16:20;;;;;;;;;5.25;4.25;;;;;25.18;54.81;101302.03;5056930;28;46132;-43
2023/09/06 06:18:48;;;;;;;;;14.00;12.00;;;;;25.23;55.10;101304.06;5056676;28;45312;-43
2023/09/06 06:21:13;;;;;;;;;13.00;11.80;;;;;25.32;54.81;101313.56;5056770;28;45393;-44
2023/09/06 06:23:43;;;;;;;;;13.50;12.75;;;;;25.34;54.54;101308.75;5056910;28;45424;-43
2023/09/06 06:26:09;;;;;;;;;15.00;13.20;;;;;25.38;53.85;101309.94;5056515;28;46633;-43
2023/09/06 06:28:34;;;;;;;;;8.25;8.25;;;;;25.42;53.81;101300.25;5056252;28;45335;-46
2023/09/06 06:30:59;;;;;;;;;12.75;12.75;;;;;25.50;53.71;101310.81;5056375;28;45398;-43
2023/09/06 06:33:25;;;;;;;;;12.50;12.25;;;;;25.58;53.79;101310.50;5056698;28;45420;-45
2023/09/06 06:35:51;;;;;;;;;12.25;11.00;;;;;25.65;52.92;101321.28;5056179;28;46847;-45
2023/09/06 06:38:16;;;;;;;;;9.25;9.25;;;;;25.66;52.90;101314.75;5056338;28;45333;-42
2023/09/06 06:40:43;;;;;;;;;13.00;9.75;;;;;25.77;52.91;101322.16;5056441;28;45461;-44
2023/09/06 06:43:08;;;;;;;;;11.80;9.60;;;;;25.83;52.40;101328.56;5056600;28;45294;-44
2023/09/06 06:45:33;;;;;;;;;11.75;9.75;;;;;25.87;52.68;101324.31;5055599;28;45427;-43
2023/09/06 06:47:59;;;;;;;;;9.50;7.75;;;;;25.94;52.20;101318.75;5056110;28;45541;-45
2023/09/06 06:50:24;;;;;;;;;10.00;9.25;;;;;25.96;52.48;101320.22;5056557;28;45347;-44
2023/09/06 06:52:49;;;;;;;;;9.75;9.75;;;;;26.05;52.15;101315.22;5056566;28;45361;-43
2023/09/06 06:55:15;;;;;;;;;10.75;9.50;;;;;26.15;51.62;101320.91;5056178;28;46415;-47
2023/09/06 06:57:40;;;;;;;;;13.50;10.75;;;;;26.17;51.53;101320.66;5056041;28;45292;-45
2023/09/06 07:00:11;;;;;;;;;9.50;9.00;;;;;26.21;51.29;101316.41;5056042;28;45358;-44
2023/09/06 07:02:37;;;;;;;;;14.20;11.60;;;;;26.38;51.78;101334.56;5056502;28;45534;-47
2023/09/06 07:05:03;;;;;;;;;14.00;12.75;;;;;26.48;51.06;101317.63;5055721;28;45430;-47
2023/09/06 07:07:28;;;;;;;;;11.40;8.60;;;;;26.76;50.50;101338.72;5056158;28;45393;-49
2023/09/06 07:09:53;;;;;;;;;10.50;8.75;;;;;27.11;49.71;101335.13;5056228;28;45367;-46
2023/09/06 07:12:19;;;;;;;;;8.75;8.00;;;;;27.33;49.26;101332.53;5056242;28;45605;-49
2023/09/06 07:14:44;;;;;;;;;10.00;10.00;;;;;27.63;48.89;101332.28;5055868;28;46484;-47
2023/09/06 07:17:09;;;;;;;;;14.50;10.00;;;;;27.80;48.48;101321.38;5055794;28;45443;-46
2023/09/06 07:19:35;;;;;;;;;9.75;9.25;;;;;28.09;47.65;101320.25;5055786;28;45385;-47
2023/09/06 07:22:00;;;;;;;;;7.75;7.75;;;;;28.46;47.42;101338.88;5056083;28;45419;-46
2023/09/06 07:24:26;;;;;;;;;11.75;8.75;;;;;28.88;46.11;101330.16;5055681;28;46041;-47
2023/09/06 07:26:51;;;;;;;;;12.75;8.00;;;;;29.44;45.63;101325.34;5054151;28;45394;-43
2023/09/06 07:29:18;;;;;;;;;8.50;7.00;;;;;30.11;44.18;101340.50;5055641;28;45293;-45
2023/09/06 07:31:44;;;;;;;;;10.80;8.40;;;;;30.66;42.64;101336.50;5055736;28;45462;-45
2023/09/06 07:34:09;;;;;;;;;9.75;8.00;;;;;31.23;41.73;101334.84;5055268;28;46496;-47
2023/09/06 07:36:34;;;;;;;;;10.25;8.75;;;;;31.65;40.69;101339.38;5055117;28;45535;-48
2023/09/06 07:39:00;;;;;;;;;11.25;6.75;;;;;31.98;40.84;101324.25;5055627;28;45422;-47
2023/09/06 07:41:28;;;;;;;;;7.25;7.25;;;;;32.21;41.00;101328.38;5055883;28;45501;-46
2023/09/06 07:43:53;;;;;;;;;9.20;9.20;;;;;32.52;39.55;101320.91;5055435;28;46205;-43
2023/09/06 07:46:18;;;;;;;;;8.50;7.75;;;;;32.93;38.27;101324.38;5055533;28;45350;-47
2023/09/06 07:48:44;;;;;;;;;9.00;7.50;;;;;33.51;37.40;101332.91;5055334;28;45477;-46
2023/09/06 07:51:10;;;;;;;;;7.25;7.25;;;;;34.00;36.60;101337.50;5055706;28;45369;-48
2023/09/06 07:53:35;;;;;;;;;9.60;9.00;;;;;34.55;35.18;101341.94;5055081;28;47438;-47
2023/09/06 07:56:01;;;;;;;;;15.25;10.50;;;;;35.05;34.82;101336.94;5055235;28;45319;-50
2023/09/06 07:58:27;;;;;;;;;8.50;8.50;;;;;35.68;34.70;101342.13;5055342;28;45212;-45
2023/09/06 08:00:52;;;;;;;;;11.00;9.50;;;;;36.03;32.86;101351.84;5054530;28;45790;-47
2023/09/06 08:03:17;;;;;;;;;7.75;6.25;;;;;36.47;32.41;101348.56;5055274;28;45320;-45
2023/09/06 08:05:43;;;;;;;;;6.00;5.25;;;;;36.99;32.00;101347.53;5055213;28;45358;-43
2023/09/06 08:08:10;;;;;;;;;7.00;5.75;;;;;37.41;31.18;101355.47;5055243;28;45678;-46
2023/09/06 08:10:36;;;;;;;;;8.00;6.20;;;;;37.74;30.60;101348.88;5055511;28;45351;-45
2023/09/06 08:13:03;;;;;;;;;7.20;7.20;;;;;38.09;30.09;101348.00;5054931;28;46593;-48
2023/09/06 08:15:31;;;;;;;;;9.00;6.20;;;;;38.47;29.79;101349.53;5054172;28;45407;-43
2023/09/06 08:17:57;;;;;;;;;8.00;8.00;;;;;38.73;29.18;101352.38;5058157;28;45219;-41
2023/09/06 08:20:22;;;;;;;;;9.00;8.00;;;;;39.03;28.86;101353.50;5058767;28;45415;-42
2023/09/06 08:22:47;;;;;;;;;7.00;7.00;;;;;39.31;28.53;101349.28;5058383;28;45624;-42
2023/09/06 08:25:17;;;;;;;;;9.00;8.00;;;;;39.50;28.02;101350.94;5058198;28;45312;-44
2023/09/06 08:27:43;;;;;;;;;10.00;8.00;;;;;39.51;27.58;101347.81;5058312;28;45396;-47
2023/09/06 08:30:13;;;;;;;;;9.75;6.00;;;;;39.25;28.35;101349.78;5058325;28;45461;-46
2023/09/06 08:32:40;;;;;;;;;5.60;5.60;;;;;38.82;28.55;101351.31;5058229;28;46439;-47
2023/09/06 08:35:06;;;;;;;;;7.00;6.00;;;;;38.87;28.45;101353.13;5058055;28;45498;-47
2023/09/06 08:37:33;;;;;;;;;10.80;8.20;;;;;38.92;28.33;101352.97;5057996;28;45410;-44
2023/09/06 08:39:58;;;;;;;;;8.00;7.20;;;;;38.97;28.53;101357.56;5058397;28;45331;-45
2023/09/06 08:42:27;;;;;;;;;10.75;9.00;;;;;39.21;28.16;101346.00;5058076;28;46648;-43
2023/09/06 08:44:54;;;;;;;;;7.60;7.40;;;;;39.49;27.96;101354.88;5057267;28;45616;-44
2023/09/06 08:47:21;;;;;;;;;8.40;6.80;;;;;39.56;27.47;101349.63;5058318;28;45557;-43
2023/09/06 08:49:47;;;;;;;;;10.80;9.00;;;;;39.84;27.06;101359.28;5057951;28;45439;-46
2023/09/06 08:52:17;;;;;;;;;8.20;8.20;;;;;40.10;27.14;101362.03;5057914;28;47315;-43
2023/09/06 08:54:46;;;;;;;;;6.60;6.60;;;;;40.44;26.52;101360.28;5057884;28;45455;-42
2023/09/06 08:57:13;;;;;;;;;7.60;7.20;;;;;40.71;26.35;101350.69;5056706;28;45492;-42
2023/09/06 08:59:39;;;;;;;;;8.80;7.60;;;;;41.03;25.52;101351.97;5058049;28;45382;-43
2023/09/06 09:02:05;;;;;;;;;11.00;9.80;;;;;41.39;26.09;101359.00;5057090;28;45774;-45
2023/09/06 09:04:31;;;;;;;;;10.00;10.00;;;;;41.92;24.64;101362.94;5055583;28;45486;-42
2023/09/06 09:06:57;;;;;;;;;7.75;6.25;;;;;42.79;23.62;101365.53;5056849;28;45245;-43
2023/09/06 09:09:24;;;;;;;;;8.40;7.40;;;;;44.30;22.73;101377.22;5057903;28;45422;-43
2023/09/06 09:11:51;;;;;;;;;8.20;6.20;;;;;45.66;21.19;101369.13;5057483;28;46105;-45
2023/09/06 09:14:22;;;;;;;;;9.00;8.00;;;;;46.89;19.88;101364.47;5056051;28;45479;-45
2023/09/06 09:16:53;;;;;;;;;10.20;8.80;;;;;47.74;19.32;101371.22;5057343;28;45537;-42
2023/09/06 09:19:21;;;;;;;;;8.20;8.20;;;;;48.32;19.57;101361.34;5057332;28;45474;-50
2023/09/06 09:21:46;;;;;;;;;9.20;8.40;;;;;48.99;18.19;101363.03;5056740;28;45676;-42
2023/09/06 09:24:12;;;;;;;;;9.00;9.00;;;;;49.65;17.03;101349.63;5057316;28;45284;-48
2023/09/06 09:26:41;;;;;;;;;10.25;8.25;;;;;50.30;17.39;101359.00;5057170;28;45445;-47
2023/09/06 09:29:12;;;;;;;;;10.40;8.00;;;;;50.91;15.86;101356.94;5056176;28;45344;-47
2023/09/06 09:31:38;;;;;;;;;6.60;6.60;;;;;51.55;15.94;101350.22;5056804;28;47226;-47
2023/09/06 09:34:04;;;;;;;;;9.40;6.80;;;;;52.09;15.86;101349.84;5056592;28;45193;-48
2023/09/06 09:36:34;;;;;;;;;7.60;6.60;;;;;52.44;15.29;101350.75;5057097;28;45435;-44
2023/09/06 09:39:08;;;;;;;;;8.00;8.00;;;;;52.77;14.86;101355.69;5057361;28;45546;-47
2023/09/06 09:41:34;;;;;;;;;7.20;7.20;;;;;53.30;14.49;101359.13;5056444;28;47357;-45
2023/09/06 09:44:13;;;;;;;;;7.20;7.20;;;;;53.77;14.48;101354.38;5057221;28;45304;-46
2023/09/06 09:46:41;;;;;;;;;7.60;7.60;;;;;54.31;13.89;101354.34;5056735;28;45335;-46
2023/09/06 09:49:08;;;;;;;;;9.60;8.40;;;;;54.70;13.72;101354.84;5057118;28;45355;-45
2023/09/06 09:51:36;;;;;;;;;6.40;6.40;;;;;54.98;13.74;101359.19;5056756;28;45456;-48
2023/09/06 09:54:04;;;;;;;;;8.40;6.20;;;;;55.22;12.60;101357.09;5056794;28;45468;-52
2023/09/06 09:56:32;;;;;;;;;8.20;5.80;;;;;55.48;13.54;101349.59;5056757;28;45269;-49
2023/09/06 09:59:00;;;;;;;;;6.40;6.40;;;;;55.79;13.35;101358.63;5056413;28;45448;-45
2023/09/06 10:01:27;;;;;;;;;6.40;6.40;;;;;55.75;13.42;101352.19;5056514;28;45957;-45
2023/09/06 10:03:55;;;;;;;;;9.20;7.00;;;;;55.79;12.48;101348.00;5056720;28;45475;-47
2023/09/06 10:06:23;;;;;;;;;10.40;7.20;;;;;56.19;12.74;101345.00;5056578;28;45417;-43
2023/09/06 10:08:51;;;;;;;;;6.00;6.00;;;;;56.45;12.50;101345.13;5056714;28;45507;-47
2023/09/06 10:11:19;;;;;;;;;7.80;6.40;;;;;56.75;12.55;101343.88;5056325;28;46145;-42
2023/09/06 10:13:46;;;;;;;;;7.60;7.20;;;;;57.01;11.57;101334.09;5055920;28;45328;-44
2023/09/06 10:16:12;;;;;;;;;9.20;9.20;;;;;57.32;11.34;101344.25;5056102;28;45325;-48
2023/09/06 10:18:38;;;;;;;;;6.40;6.40;;;;;57.55;11.81;101340.25;5056135;28;45417;-46
2023/09/06 10:21:04;;;;;;;;;7.75;7.75;;;;;57.53;11.81;101339.88;5055915;28;45412;-46
2023/09/06 10:23:31;;;;;;;;;6.80;6.80;;;;;57.65;12.02;101339.91;5056099;28;45400;-48
2023/09/06 10:25:59;;;;;;;;;5.40;5.40;;;;;57.70;10.70;101335.69;5056364;28;45368;-49
2023/09/06 10:28:25;;;;;;;;;6.60;6.60;;;;;57.39;11.71;101347.69;5056576;28;45342;-44
2023/09/06 10:30:57;;;;;;;;;6.25;6.25;;;;;57.64;10.89;101334.66;5056167;28;46826;-42
2023/09/06 10:33:42;;;;;;;;;7.60;7.60;;;;;57.18;12.05;101329.13;5054934;28;45310;-41
2023/09/06 10:36:15;;;;;;;;;8.00;7.20;;;;;56.85;12.29;101328.47;5056341;28;45209;-44
2023/09/06 10:38:53;;;;;;;;;7.60;7.00;;;;;57.00;12.02;101323.94;5055994;28;45810;-43
2023/09/06 10:41:22;;;;;;;;;7.80;7.80;;;;;57.11;11.58;101320.78;5055468;28;45493;-42
2023/09/06 10:44:01;;;;;;;;;8.60;8.60;;;;;57.19;12.04;101322.16;5056040;28;45788;-49
2023/09/06 10:46:31;;;;;;;;;6.00;6.00;;;;;57.37;11.61;101318.75;5056072;28;45245;-48
2023/09/06 10:49:25;;;;;;;;;9.00;9.00;;;;;57.35;11.05;101309.81;5056271;28;45419;-41
2023/09/06 10:52:03;;;;;;;;;7.20;7.20;;;;;57.19;10.98;101309.88;5056059;28;45477;-43
2023/09/06 10:54:38;;;;;;;;;7.60;7.60;;;;;57.46;11.38;101312.34;5055557;28;45509;-45
2023/09/06 10:57:05;;;;;;;;;7.60;7.60;;;;;57.64;11.57;101314.63;5055664;28;45477;-46
2023/09/06 10:59:32;;;;;;;;;11.00;9.40;;;;;57.79;10.95;101301.44;5055869;28;45747;-47
2023/09/06 11:02:16;;;;;;;;;9.00;9.00;;;;;57.95;11.45;101312.75;5055561;28;46194;-47
2023/09/06 11:04:42;;;;;;;;;8.40;7.20;;;;;58.34;10.51;101310.56;5054185;28;45438;-46
2023/09/06 11:07:12;;;;;;;;;10.00;8.80;;;;;58.28;10.80;101306.69;5055723;28;45347;-48
2023/09/06 11:09:50;;;;;;;;;7.40;7.40;;;;;58.12;10.99;101301.13;5055148;28;45474;-43
2023/09/06 11:12:16;;;;;;;;;9.00;8.20;;;;;58.15;11.15;101303.03;5055350;28;47057;-43
2023/09/06 11:14:47;;;;;;;;;7.60;5.60;;;;;58.26;10.59;101299.84;5055644;28;45370;-46